Time,TemperatureF,DewpointF,PressureIn,WindDirection,WindDirectionDegrees,WindSpeedMPH,WindSpeedGustMPH,Humidity,HourlyPrecipIn,Conditions,Clouds,dailyrainin,SolarRadiationWatts/m^2,SoftwareType,DateUTC
2013-06-26 00:01:00,73.6,67.8,29.67,South,184,0.0,0.0,82,0.00,-RA,,0.00,0.0,WeatherDisplay:10.37,2013-06-26 05:01:00,
2013-06-26 00:06:00,73.6,67.8,29.67,South,175,0.0,0.0,82,0.00,-RA,,0.00,0.0,WeatherDisplay:10.37,2013-06-26 05:06:00,
2013-06-26 00:11:00,73.5,67.7,29.67,South,186,0.0,0.0,82,0.00,-RA,,0.00,0.0,WeatherDisplay:10.37,2013-06-26 05:11:00,
2013-06-26 00:16:00,73.5,67.7,29.67,SSE,157,0.0,0.0,82,0.00,-RA,,0.00,0.0,WeatherDisplay:10.37,2013-06-26 05:16:00,
2013-06-26 00:21:00,73.5,67.7,29.67,SSW,203,0.0,0.0,82,0.00,-RA,,0.00,0.0,WeatherDisplay:10.37,2013-06-26 05:21:00,
2013-06-26 00:26:00,73.4,67.6,29.66,SSW,207,0.0,0.0,82,0.00,-RA,,0.00,0.0,WeatherDisplay:10.37,2013-06-26 05:26:00,
2013-06-26 00:31:00,73.4,67.6,29.67,SSW,207,0.0,0.0,82,0.00,-RA,,0.00,0.0,WeatherDisplay:10.37,2013-06-26 05:31:00,
2013-06-26 00:36:00,73.3,67.8,29.67,SSW,205,0.0,0.0,83,0.00,-RA,,0.00,0.0,WeatherDisplay:10.37,2013-06-26 05:36:00,
2013-06-26 00:42:00,73.3,67.8,29.67,SSW,197,0.0,0.0,83,0.00,-RA,,0.00,0.0,WeatherDisplay:10.37,2013-06-26 05:42:00,
2013-06-26 00:47:00,73.2,67.7,29.68,WSW,250,0.0,0.2,83,0.00,-RA,,0.00,0.0,WeatherDisplay:10.37,2013-06-26 05:47:00,
2013-06-26 00:52:00,73.1,67.3,29.69,SW,230,1.2,1.2,82,0.00,-RA,,0.00,0.0,WeatherDisplay:10.37,2013-06-26 05:52:00,
2013-06-26 00:57:00,73.0,67.2,29.69,WSW,241,0.0,0.0,82,0.00,-RA,,0.00,0.0,WeatherDisplay:10.37,2013-06-26 05:57:00,
2013-06-26 01:02:00,73.0,67.2,29.68,WSW,241,0.0,0.0,82,0.00,-RA,,0.00,0.0,WeatherDisplay:10.37,2013-06-26 06:02:00,
2013-06-26 01:07:00,73.0,67.2,29.68,WSW,241,0.0,0.0,82,0.00,-RA,,0.00,0.0,WeatherDisplay:10.37,2013-06-26 06:07:00,
2013-06-26 01:12:00,73.0,67.2,29.67,WSW,242,0.0,0.0,82,0.00,-RA,,0.00,0.0,WeatherDisplay:10.37,2013-06-26 06:12:00,
2013-06-26 01:17:00,72.9,67.1,29.67,WSW,242,0.0,0.0,82,0.00,-RA,,0.00,0.0,WeatherDisplay:10.37,2013-06-26 06:17:00,
2013-06-26 01:22:00,72.9,67.1,29.67,WSW,241,0.0,0.0,82,0.00,-RA,,0.00,0.0,WeatherDisplay:10.37,2013-06-26 06:22:00,
2013-06-26 01:27:00,72.8,67.0,29.67,WSW,241,0.0,0.0,82,0.00,-RA,,0.00,0.0,WeatherDisplay:10.37,2013-06-26 06:27:00,
2013-06-26 01:32:00,72.7,66.9,29.67,WSW,241,0.0,0.0,82,0.00,-RA,,0.00,0.0,WeatherDisplay:10.37,2013-06-26 06:32:00,
2013-06-26 01:37:00,72.5,66.7,29.67,WSW,241,0.0,0.0,82,0.00,-RA,,0.00,0.0,WeatherDisplay:10.37,2013-06-26 06:37:00,
2013-06-26 01:42:00,72.4,66.6,29.67,WSW,241,0.0,0.0,82,0.00,-RA,,0.00,0.0,WeatherDisplay:10.37,2013-06-26 06:42:00,
2013-06-26 01:47:00,72.2,66.4,29.67,WSW,241,0.0,0.0,82,0.00,-RA,,0.00,0.0,WeatherDisplay:10.37,2013-06-26 06:47:00,
2013-06-26 01:52:00,72.0,66.6,29.67,WSW,242,0.0,0.0,83,0.00,-RA,,0.00,0.0,WeatherDisplay:10.37,2013-06-26 06:52:00,
2013-06-26 01:57:00,71.8,66.4,29.66,WSW,242,0.0,0.0,83,0.00,-RA,,0.00,0.0,WeatherDisplay:10.37,2013-06-26 06:57:00,
2013-06-26 02:02:00,71.6,66.2,29.67,WSW,241,0.0,0.0,83,0.00,-RA,,0.00,0.0,WeatherDisplay:10.37,2013-06-26 07:02:00,
2013-06-26 02:07:00,71.4,66.3,29.67,WSW,241,0.0,0.0,84,0.00,-RA,,0.00,0.0,WeatherDisplay:10.37,2013-06-26 07:07:00,
2013-06-26 02:12:00,71.2,65.8,29.68,WSW,245,1.2,0.0,83,0.00,-RA,,0.00,0.0,WeatherDisplay:10.37,2013-06-26 07:12:00,
2013-06-26 02:17:00,70.9,65.8,29.68,South,190,2.0,2.1,84,0.00,-RA,,0.00,0.0,WeatherDisplay:10.37,2013-06-26 07:17:00,
2013-06-26 02:22:00,70.7,66.0,29.68,WSW,248,1.2,0.0,85,0.00,-RA,,0.00,0.0,WeatherDisplay:10.37,2013-06-26 07:22:00,
2013-06-26 02:27:00,70.5,65.8,29.68,WSW,248,0.0,0.0,85,0.00,-RA,,0.00,0.0,WeatherDisplay:10.37,2013-06-26 07:27:00,
2013-06-26 02:32:00,70.3,65.6,29.68,WSW,248,0.0,0.0,85,0.00,-RA,,0.00,0.0,WeatherDisplay:10.37,2013-06-26 07:32:00,
2013-06-26 02:37:00,70.2,65.8,29.69,West,261,0.0,0.0,86,0.01,-RA,,0.01,0.0,WeatherDisplay:10.37,2013-06-26 07:37:00,
2013-06-26 02:42:00,69.9,65.5,29.70,NNW,330,0.0,0.0,86,0.01,-RA,,0.02,0.0,WeatherDisplay:10.37,2013-06-26 07:42:00,
2013-06-26 02:47:00,69.5,64.8,29.70,North,11,4.6,4.6,85,0.02,-RA,,0.02,0.0,WeatherDisplay:10.37,2013-06-26 07:47:00,
2013-06-26 02:52:00,69.0,64.3,29.69,North,5,2.3,2.3,85,0.03,-RA,,0.03,0.0,WeatherDisplay:10.37,2013-06-26 07:52:00,
2013-06-26 02:57:00,68.5,64.1,29.67,East,98,1.2,0.0,86,0.04,-RA,,0.04,0.0,WeatherDisplay:10.37,2013-06-26 07:57:00,
2013-06-26 03:02:00,68.2,63.9,29.67,NNW,327,1.2,1.2,86,0.05,-RA,,0.05,0.0,WeatherDisplay:10.37,2013-06-26 08:02:00,
2013-06-26 03:07:00,67.8,63.5,29.66,NNW,345,0.0,0.0,86,0.06,-RA,,0.06,0.0,WeatherDisplay:10.37,2013-06-26 08:07:00,
2013-06-26 03:12:00,67.5,63.5,29.66,NNW,340,0.0,0.0,87,0.06,-RA,,0.06,0.0,WeatherDisplay:10.37,2013-06-26 08:12:00,
2013-06-26 03:17:00,67.2,63.5,29.67,NNW,333,0.0,0.0,88,0.06,-RA,,0.06,0.0,WeatherDisplay:10.37,2013-06-26 08:17:00,
2013-06-26 03:22:00,67.0,63.3,29.66,NNW,333,1.2,1.2,88,0.06,-RA,,0.06,0.0,WeatherDisplay:10.37,2013-06-26 08:22:00,
2013-06-26 03:27:00,66.8,63.5,29.67,NNW,345,0.0,0.0,89,0.07,-RA,,0.07,0.0,WeatherDisplay:10.37,2013-06-26 08:27:00,
2013-06-26 03:32:00,66.7,63.4,29.67,North,9,1.2,1.2,89,0.07,-RA,,0.07,0.0,WeatherDisplay:10.37,2013-06-26 08:32:00,
2013-06-26 03:37:00,66.5,63.2,29.70,North,350,0.0,0.0,89,0.07,-RA,,0.08,0.0,WeatherDisplay:10.37,2013-06-26 08:37:00,
2013-06-26 03:42:00,66.3,63.0,29.77,WSW,252,7.0,7.0,89,0.12,-RA,,0.16,0.0,WeatherDisplay:10.37,2013-06-26 08:42:00,
2013-06-26 03:47:00,66.2,63.2,29.73,WSW,240,4.6,4.6,90,0.36,-RA,,0.41,0.0,WeatherDisplay:10.37,2013-06-26 08:47:00,
2013-06-26 03:52:00,66.0,63.0,29.74,NW,304,2.3,2.3,90,0.52,-RA,,0.56,0.0,WeatherDisplay:10.37,2013-06-26 08:52:00,
2013-06-26 03:57:00,65.8,62.8,29.73,SW,225,0.0,0.0,90,0.53,-RA,,0.57,0.0,WeatherDisplay:10.37,2013-06-26 08:57:00,
2013-06-26 04:02:00,65.6,62.6,29.71,WSW,248,0.0,0.0,90,0.53,-RA,,0.58,0.0,WeatherDisplay:10.37,2013-06-26 09:02:00,
2013-06-26 04:07:00,65.5,62.8,29.69,NNW,340,0.0,0.0,91,0.53,-RA,,0.59,0.0,WeatherDisplay:10.37,2013-06-26 09:07:00,
2013-06-26 04:12:00,65.3,62.6,29.70,NNW,333,1.2,0.0,91,0.54,-RA,,0.60,0.0,WeatherDisplay:10.37,2013-06-26 09:12:00,
2013-06-26 04:17:00,65.2,62.5,29.70,NNW,332,1.2,1.2,91,0.55,-RA,,0.61,0.0,WeatherDisplay:10.37,2013-06-26 09:17:00,
2013-06-26 04:22:00,65.1,62.4,29.70,NNW,331,0.0,0.0,91,0.56,-RA,,0.62,0.0,WeatherDisplay:10.37,2013-06-26 09:22:00,
2013-06-26 04:27:00,65.0,62.3,29.70,NNW,332,0.0,0.0,91,0.57,-RA,,0.64,0.0,WeatherDisplay:10.37,2013-06-26 09:27:00,
2013-06-26 04:32:00,64.9,62.5,29.70,NNW,331,0.0,0.0,92,0.58,-RA,,0.65,0.0,WeatherDisplay:10.37,2013-06-26 09:32:00,
2013-06-26 04:37:00,64.8,62.1,29.70,NNW,331,0.0,0.0,91,0.58,-RA,,0.66,0.0,WeatherDisplay:10.37,2013-06-26 09:37:00,
2013-06-26 04:42:00,64.7,62.0,29.70,NNW,332,0.0,0.0,91,0.52,-RA,,0.67,0.0,WeatherDisplay:10.37,2013-06-26 09:42:00,
2013-06-26 04:47:00,64.7,62.3,29.69,NNW,332,0.0,0.0,92,0.29,-RA,,0.67,0.0,WeatherDisplay:10.37,2013-06-26 09:47:00,
2013-06-26 04:52:00,64.6,62.2,29.69,NNW,331,0.0,0.0,92,0.13,-RA,,0.68,0.0,WeatherDisplay:10.37,2013-06-26 09:52:00,
2013-06-26 04:57:00,64.5,62.1,29.69,NNW,332,0.0,0.0,92,0.11,-RA,,0.69,0.0,WeatherDisplay:10.37,2013-06-26 09:57:00,
2013-06-26 05:02:00,64.5,62.1,29.68,NNW,336,1.2,1.2,92,0.12,-RA,,0.70,0.0,WeatherDisplay:10.37,2013-06-26 10:02:00,
2013-06-26 05:07:00,64.4,62.0,29.67,NNW,336,0.0,0.0,92,0.11,-RA,,0.70,0.0,WeatherDisplay:10.37,2013-06-26 10:07:00,
2013-06-26 05:12:00,64.4,62.3,29.66,NNW,348,0.0,0.0,93,0.11,-RA,,0.71,0.0,WeatherDisplay:10.37,2013-06-26 10:12:00,
2013-06-26 05:17:00,64.4,62.3,29.64,North,350,0.0,0.0,93,0.11,-RA,,0.72,0.0,WeatherDisplay:10.37,2013-06-26 10:17:00,
2013-06-26 05:22:00,64.4,62.3,29.64,North,355,0.0,0.0,93,0.10,-RA,,0.72,0.0,WeatherDisplay:10.37,2013-06-26 10:22:00,
2013-06-26 05:27:00,64.4,62.3,29.62,NNE,29,1.2,1.2,93,0.08,-RA,,0.72,0.0,WeatherDisplay:10.37,2013-06-26 10:27:00,
2013-06-26 05:32:00,64.3,62.2,29.61,East,90,2.3,2.3,93,0.08,-RA,,0.73,0.0,WeatherDisplay:10.37,2013-06-26 10:32:00,
2013-06-26 05:37:00,64.3,62.2,29.60,SW,217,2.3,2.3,93,0.07,-RA,,0.73,0.0,WeatherDisplay:10.37,2013-06-26 10:37:00,
2013-06-26 05:42:00,64.2,62.1,29.60,SSW,194,0.0,0.2,93,0.07,-RA,,0.73,0.0,WeatherDisplay:10.37,2013-06-26 10:42:00,
2013-06-26 05:47:00,64.1,62.0,29.60,SSE,156,2.3,0.0,93,0.06,-RA,,0.73,0.0,WeatherDisplay:10.37,2013-06-26 10:47:00,
2013-06-26 05:52:00,64.0,61.9,29.60,NE,36,0.0,0.0,93,0.05,-RA,,0.73,5.0,WeatherDisplay:10.37,2013-06-26 10:52:00,
2013-06-26 05:57:00,64.0,61.9,29.60,East,99,0.0,0.1,93,0.05,-RA,,0.73,7.0,WeatherDisplay:10.37,2013-06-26 10:57:00,
2013-06-26 06:02:00,64.0,61.9,29.60,East,99,0.0,0.0,93,0.03,-RA,,0.73,11.0,WeatherDisplay:10.37,2013-06-26 11:02:00,
2013-06-26 06:07:00,63.9,61.8,29.59,East,99,0.0,0.0,93,0.03,-RA,,0.73,16.0,WeatherDisplay:10.37,2013-06-26 11:07:00,
2013-06-26 06:12:00,63.9,61.8,29.59,SSE,153,1.2,0.0,93,0.02,-RA,,0.73,18.0,WeatherDisplay:10.37,2013-06-26 11:12:00,
2013-06-26 06:18:00,63.9,61.8,29.59,SSE,156,0.0,0.0,93,0.01,-RA,,0.73,25.0,WeatherDisplay:10.37,2013-06-26 11:18:00,
2013-06-26 06:23:00,63.9,62.1,29.60,SSE,156,0.0,0.0,94,0.01,-RA,,0.73,39.0,WeatherDisplay:10.37,2013-06-26 11:23:00,
2013-06-26 06:28:00,63.9,61.8,29.61,SE,131,0.0,0.0,93,0.01,-RA,,0.73,44.0,WeatherDisplay:10.37,2013-06-26 11:28:00,
2013-06-26 06:33:00,63.9,62.1,29.61,SE,131,0.0,0.0,94,0.00,-RA,,0.73,40.0,WeatherDisplay:10.37,2013-06-26 11:33:00,
2013-06-26 06:38:00,63.9,62.1,29.61,SE,131,0.0,0.0,94,0.00,-RA,,0.73,30.0,WeatherDisplay:10.37,2013-06-26 11:38:00,
2013-06-26 06:43:00,63.9,62.1,29.61,South,191,0.0,0.0,94,0.00,-RA,,0.73,28.0,WeatherDisplay:10.37,2013-06-26 11:43:00,
2013-06-26 06:48:00,64.0,62.2,29.62,West,276,0.0,0.0,94,0.00,-RA,,0.73,32.0,WeatherDisplay:10.37,2013-06-26 11:48:00,
2013-06-26 06:53:00,64.0,62.2,29.62,West,275,0.0,0.0,94,0.00,-RA,,0.73,37.0,WeatherDisplay:10.37,2013-06-26 11:53:00,
2013-06-26 06:58:00,64.0,62.2,29.62,West,270,0.0,0.3,94,0.00,-RA,,0.73,46.0,WeatherDisplay:10.37,2013-06-26 11:58:00,
2013-06-26 07:03:00,64.0,62.2,29.62,WNW,286,1.2,0.0,94,0.00,-RA,,0.73,58.0,WeatherDisplay:10.37,2013-06-26 12:03:00,
2013-06-26 07:08:00,64.0,62.2,29.63,WNW,284,1.2,0.0,94,0.00,-RA,,0.73,70.0,WeatherDisplay:10.37,2013-06-26 12:08:00,
2013-06-26 07:13:00,64.0,62.2,29.64,WNW,284,0.0,0.0,94,0.00,-RA,,0.73,98.0,WeatherDisplay:10.37,2013-06-26 12:13:00,
2013-06-26 07:18:00,64.0,62.2,29.64,WNW,283,3.5,3.5,94,0.00,-RA,,0.73,104.0,WeatherDisplay:10.37,2013-06-26 12:18:00,
2013-06-26 07:23:00,64.1,62.3,29.64,West,279,0.0,0.0,94,0.00,-RA,,0.73,118.0,WeatherDisplay:10.37,2013-06-26 12:23:00,
2013-06-26 07:28:00,64.2,62.4,29.65,West,279,0.0,0.0,94,0.00,-RA,,0.73,111.0,WeatherDisplay:10.37,2013-06-26 12:28:00,
2013-06-26 07:33:00,64.4,62.6,29.64,West,279,0.0,0.0,94,0.00,-RA,,0.73,113.0,WeatherDisplay:10.37,2013-06-26 12:33:00,
2013-06-26 07:38:00,64.6,62.8,29.64,West,279,0.0,0.0,94,0.00,-RA,,0.73,95.0,WeatherDisplay:10.37,2013-06-26 12:38:00,
2013-06-26 07:43:00,64.8,63.3,29.64,West,279,0.0,0.0,95,0.00,-RA,,0.73,83.0,WeatherDisplay:10.37,2013-06-26 12:43:00,
2013-06-26 07:48:00,65.0,63.5,29.65,West,279,0.0,0.0,95,0.00,-RA,,0.73,72.0,WeatherDisplay:10.37,2013-06-26 12:48:00,
2013-06-26 07:53:00,65.1,63.3,29.66,SW,214,1.2,1.2,94,0.00,-RA,,0.73,74.0,WeatherDisplay:10.37,2013-06-26 12:53:00,
2013-06-26 07:58:00,65.2,63.4,29.66,SW,218,3.5,0.0,94,0.00,-RA,,0.73,83.0,WeatherDisplay:10.37,2013-06-26 12:58:00,
2013-06-26 08:03:00,65.2,63.4,29.66,SW,217,2.3,2.3,94,0.00,-RA,,0.73,83.0,WeatherDisplay:10.37,2013-06-26 13:03:00,
2013-06-26 08:08:00,65.4,63.6,29.67,SW,215,0.0,0.0,94,0.00,-RA,,0.73,60.0,WeatherDisplay:10.37,2013-06-26 13:08:00,
2013-06-26 08:13:00,65.4,63.9,29.67,SW,229,0.0,0.0,95,0.00,-RA,,0.73,90.0,WeatherDisplay:10.37,2013-06-26 13:13:00,
2013-06-26 08:18:00,65.6,64.1,29.67,SW,222,0.0,0.0,95,0.00,-RA,,0.73,81.0,WeatherDisplay:10.37,2013-06-26 13:18:00,
2013-06-26 08:23:00,65.7,64.2,29.67,SW,227,0.0,0.0,95,0.00,-RA,,0.73,83.0,WeatherDisplay:10.37,2013-06-26 13:23:00,
2013-06-26 08:28:00,65.8,64.3,29.68,SW,236,0.0,0.0,95,0.00,-RA,,0.73,70.0,WeatherDisplay:10.37,2013-06-26 13:28:00,
2013-06-26 08:33:00,65.9,64.4,29.68,WSW,253,0.0,0.0,95,0.00,-RA,,0.73,84.0,WeatherDisplay:10.37,2013-06-26 13:33:00,
2013-06-26 08:38:00,66.0,64.2,29.68,West,261,1.2,0.0,94,0.00,-RA,,0.73,90.0,WeatherDisplay:10.37,2013-06-26 13:38:00,
2013-06-26 08:43:00,66.1,64.6,29.68,West,267,0.0,0.0,95,0.00,-RA,,0.73,72.0,WeatherDisplay:10.37,2013-06-26 13:43:00,
2013-06-26 08:48:00,66.3,64.8,29.68,West,267,0.0,0.0,95,0.00,-RA,,0.73,90.0,WeatherDisplay:10.37,2013-06-26 13:48:00,
2013-06-26 08:53:00,66.5,65.0,29.68,West,269,2.3,2.3,95,0.00,-RA,,0.73,98.0,WeatherDisplay:10.37,2013-06-26 13:53:00,
2013-06-26 08:58:00,66.7,65.2,29.68,SW,223,0.0,0.0,95,0.00,-RA,,0.73,105.0,WeatherDisplay:10.37,2013-06-26 13:58:00,
2013-06-26 09:03:00,67.0,65.5,29.69,WNW,288,1.2,0.0,95,0.00,-RA,,0.73,142.0,WeatherDisplay:10.37,2013-06-26 14:03:00,
2013-06-26 09:08:00,67.2,65.7,29.69,WNW,291,0.0,0.0,95,0.00,-RA,,0.73,95.0,WeatherDisplay:10.37,2013-06-26 14:08:00,
2013-06-26 09:13:00,67.3,65.5,29.69,WNW,290,0.0,0.0,94,0.00,-RA,,0.73,70.0,WeatherDisplay:10.37,2013-06-26 14:13:00,
2013-06-26 09:18:00,67.4,65.6,29.70,SW,225,0.0,0.0,94,0.00,-RA,,0.73,56.0,WeatherDisplay:10.37,2013-06-26 14:18:00,
2013-06-26 09:23:00,67.6,65.8,29.70,SW,225,0.0,0.0,94,0.00,-RA,,0.73,160.0,WeatherDisplay:10.37,2013-06-26 14:23:00,
2013-06-26 09:28:00,68.1,65.7,29.70,West,269,0.0,0.0,92,0.00,-RA,,0.73,148.0,WeatherDisplay:10.37,2013-06-26 14:28:00,
2013-06-26 09:33:00,68.8,65.1,29.70,WSW,248,2.3,2.3,88,0.00,-RA,,0.73,251.0,WeatherDisplay:10.37,2013-06-26 14:33:00,
2013-06-26 09:38:00,69.4,65.4,29.71,WSW,248,0.0,0.0,87,0.00,-RA,,0.73,218.0,WeatherDisplay:10.37,2013-06-26 14:38:00,
2013-06-26 09:43:00,69.6,65.2,29.71,West,267,1.0,0.0,86,0.00,-RA,,0.73,255.0,WeatherDisplay:10.37,2013-06-26 14:43:00,
2013-06-26 09:48:00,69.6,64.5,29.71,West,269,0.0,0.0,84,0.00,-RA,,0.73,213.0,WeatherDisplay:10.37,2013-06-26 14:48:00,
2013-06-26 09:53:00,69.9,65.2,29.71,West,263,0.0,0.0,85,0.00,-RA,,0.73,230.0,WeatherDisplay:10.37,2013-06-26 14:53:00,
2013-06-26 09:58:00,71.0,65.9,29.70,West,261,0.0,0.1,84,0.00,-RA,,0.73,336.0,WeatherDisplay:10.37,2013-06-26 14:58:00,
2013-06-26 10:03:00,71.0,65.6,29.70,West,262,0.0,0.0,83,0.00,-RA,,0.73,253.0,WeatherDisplay:10.37,2013-06-26 15:03:00,
2013-06-26 10:08:00,71.0,65.6,29.70,SW,233,3.5,3.5,83,0.00,-RA,,0.73,348.0,WeatherDisplay:10.37,2013-06-26 15:08:00,
2013-06-26 10:13:00,71.5,66.1,29.70,SW,227,3.5,3.5,83,0.00,-RA,,0.73,350.0,WeatherDisplay:10.37,2013-06-26 15:13:00,
2013-06-26 10:18:00,72.0,65.8,29.70,WSW,244,3.5,3.5,81,0.00,-RA,,0.73,837.0,WeatherDisplay:10.37,2013-06-26 15:18:00,
2013-06-26 10:23:00,72.2,66.0,29.70,WNW,286,0.0,0.0,81,0.00,-RA,,0.73,216.0,WeatherDisplay:10.37,2013-06-26 15:23:00,
2013-06-26 10:28:00,71.3,65.5,29.71,WNW,286,1.2,0.0,82,0.00,-RA,,0.73,267.0,WeatherDisplay:10.37,2013-06-26 15:28:00,
2013-06-26 10:33:00,71.5,65.7,29.71,West,277,0.0,0.0,82,0.00,-RA,,0.73,297.0,WeatherDisplay:10.37,2013-06-26 15:33:00,
2013-06-26 10:38:00,72.3,66.8,29.71,WSW,240,1.2,0.0,83,0.00,-RA,,0.73,374.0,WeatherDisplay:10.37,2013-06-26 15:38:00,
2013-06-26 10:43:00,73.4,66.5,29.71,North,10,0.0,0.0,79,0.00,-RA,,0.73,587.0,WeatherDisplay:10.37,2013-06-26 15:43:00,
2013-06-26 10:48:00,72.6,65.7,29.71,NW,323,0.0,0.0,79,0.00,-RA,,0.73,172.0,WeatherDisplay:10.37,2013-06-26 15:48:00,
2013-06-26 10:53:00,73.0,66.8,29.71,NW,323,0.0,0.0,81,0.00,-RA,,0.73,1079.0,WeatherDisplay:10.37,2013-06-26 15:53:00,
2013-06-26 10:58:00,72.9,66.0,29.71,West,281,1.2,0.0,79,0.00,-RA,,0.73,272.0,WeatherDisplay:10.37,2013-06-26 15:58:00,
2013-06-26 11:03:00,72.1,65.2,29.71,West,281,1.2,1.2,79,0.00,-RA,,0.73,315.0,WeatherDisplay:10.37,2013-06-26 16:03:00,
2013-06-26 11:08:00,72.6,65.3,29.71,West,280,0.0,0.0,78,0.00,-RA,,0.73,603.0,WeatherDisplay:10.37,2013-06-26 16:08:00,
2013-06-26 11:13:00,73.7,66.8,29.71,West,279,0.0,0.0,79,0.00,-RA,,0.73,457.0,WeatherDisplay:10.37,2013-06-26 16:13:00,
2013-06-26 11:18:00,73.0,66.1,29.71,WNW,286,0.0,0.0,79,0.00,-RA,,0.73,267.0,WeatherDisplay:10.37,2013-06-26 16:18:00,
2013-06-26 11:23:00,72.1,65.6,29.72,NNW,344,1.2,0.0,80,0.00,-RA,,0.73,367.0,WeatherDisplay:10.37,2013-06-26 16:23:00,
2013-06-26 11:28:00,72.4,66.6,29.72,NNW,338,0.0,0.0,82,0.00,-RA,,0.73,388.0,WeatherDisplay:10.37,2013-06-26 16:28:00,
2013-06-26 11:33:00,72.4,65.9,29.72,NNE,14,3.5,3.5,80,0.00,-RA,,0.73,355.0,WeatherDisplay:10.37,2013-06-26 16:33:00,
2013-06-26 11:38:00,72.2,65.7,29.73,NNW,348,1.2,1.2,80,0.00,-RA,,0.73,390.0,WeatherDisplay:10.37,2013-06-26 16:38:00,
2013-06-26 11:43:00,72.1,65.2,29.73,NW,311,2.3,2.3,79,0.00,-RA,,0.73,362.0,WeatherDisplay:10.37,2013-06-26 16:43:00,
2013-06-26 11:48:00,72.1,65.2,29.73,NW,309,0.0,0.0,79,0.00,-RA,,0.73,438.0,WeatherDisplay:10.37,2013-06-26 16:48:00,
2013-06-26 11:53:00,73.6,66.3,29.73,WSW,242,3.0,3.0,78,0.00,-RA,,0.73,438.0,WeatherDisplay:10.37,2013-06-26 16:53:00,
2013-06-26 11:58:00,73.9,66.6,29.73,SW,229,1.2,0.0,78,0.00,-RA,,0.73,418.0,WeatherDisplay:10.37,2013-06-26 16:58:00,
2013-06-26 12:03:00,73.8,65.8,29.73,WSW,246,3.5,3.5,76,0.00,-RA,,0.73,167.0,WeatherDisplay:10.37,2013-06-26 17:03:00,
2013-06-26 12:08:00,73.1,66.2,29.73,West,267,0.0,0.0,79,0.00,-RA,,0.73,250.0,WeatherDisplay:10.37,2013-06-26 17:08:00,
2013-06-26 12:13:00,72.7,66.2,29.73,NW,312,1.2,1.2,80,0.00,-RA,,0.73,473.0,WeatherDisplay:10.37,2013-06-26 17:13:00,
2013-06-26 12:18:00,73.2,66.3,29.73,NW,323,2.3,2.3,79,0.00,-RA,,0.73,473.0,WeatherDisplay:10.37,2013-06-26 17:18:00,
2013-06-26 12:23:00,74.9,67.6,29.72,WSW,258,3.5,0.0,78,0.00,-RA,,0.73,1118.0,WeatherDisplay:10.37,2013-06-26 17:23:00,
2013-06-26 12:28:00,75.7,67.2,29.72,NE,44,1.0,1.0,75,0.00,-RA,,0.73,427.0,WeatherDisplay:10.37,2013-06-26 17:28:00,
2013-06-26 12:33:00,75.0,66.5,29.72,North,5,3.5,3.5,75,0.00,-RA,,0.73,318.0,WeatherDisplay:10.37,2013-06-26 17:33:00,
2013-06-26 12:38:00,75.0,68.4,29.72,North,360,0.0,0.0,80,0.00,-RA,,0.73,1127.0,WeatherDisplay:10.37,2013-06-26 17:38:00,
2013-06-26 12:43:00,75.1,66.6,29.72,West,269,3.5,3.5,75,0.00,-RA,,0.73,334.0,WeatherDisplay:10.37,2013-06-26 17:43:00,
2013-06-26 12:48:00,74.3,67.0,29.72,West,279,0.0,0.0,78,0.00,-RA,,0.73,540.0,WeatherDisplay:10.37,2013-06-26 17:48:00,
2013-06-26 12:53:00,74.5,66.4,29.73,West,272,3.5,3.5,76,0.00,-RA,,0.73,452.0,WeatherDisplay:10.37,2013-06-26 17:53:00,
2013-06-26 12:58:00,74.6,67.3,29.73,West,281,0.0,0.0,78,0.00,-RA,,0.73,668.0,WeatherDisplay:10.37,2013-06-26 17:58:00,
2013-06-26 13:03:00,75.4,68.1,29.72,WNW,302,0.0,0.0,78,0.00,-RA,,0.73,668.0,WeatherDisplay:10.37,2013-06-26 18:03:00,
2013-06-26 13:08:00,75.7,67.2,29.72,SSW,213,3.5,0.0,75,0.00,-RA,,0.73,802.0,WeatherDisplay:10.37,2013-06-26 18:08:00,
2013-06-26 13:13:00,75.6,67.5,29.73,North,5,3.5,3.5,76,0.00,-RA,,0.73,684.0,WeatherDisplay:10.37,2013-06-26 18:13:00,
2013-06-26 13:18:00,75.2,67.5,29.72,WSW,253,1.2,0.0,77,0.00,-RA,,0.73,540.0,WeatherDisplay:10.37,2013-06-26 18:18:00,
2013-06-26 13:23:00,74.9,66.4,29.72,SW,225,3.5,3.5,75,0.00,-RA,,0.73,371.0,WeatherDisplay:10.37,2013-06-26 18:23:00,
2013-06-26 13:28:00,74.4,66.7,29.73,West,264,2.3,2.3,77,0.00,-RA,,0.73,218.0,WeatherDisplay:10.37,2013-06-26 18:28:00,
2013-06-26 13:33:00,73.5,66.2,29.73,West,263,1.2,1.2,78,0.00,-RA,,0.73,325.0,WeatherDisplay:10.37,2013-06-26 18:33:00,
2013-06-26 13:38:00,73.5,66.9,29.73,WSW,244,2.3,2.3,80,0.00,-RA,,0.73,346.0,WeatherDisplay:10.37,2013-06-26 18:38:00,
2013-06-26 13:43:00,73.6,66.7,29.73,SW,217,4.6,4.6,79,0.00,-RA,,0.73,239.0,WeatherDisplay:10.37,2013-06-26 18:43:00,
2013-06-26 13:48:00,73.3,66.8,29.73,WSW,243,0.0,0.5,80,0.00,-RA,,0.73,304.0,WeatherDisplay:10.37,2013-06-26 18:48:00,
2013-06-26 13:53:00,73.3,67.1,29.73,West,269,2.3,2.3,81,0.00,-RA,,0.73,420.0,WeatherDisplay:10.37,2013-06-26 18:53:00,
2013-06-26 13:58:00,73.4,66.9,29.73,WSW,256,3.5,0.0,80,0.00,-RA,,0.73,294.0,WeatherDisplay:10.37,2013-06-26 18:58:00,
2013-06-26 14:03:00,73.5,66.6,29.74,WSW,246,2.3,2.3,79,0.00,-RA,,0.73,339.0,WeatherDisplay:10.37,2013-06-26 19:03:00,
2013-06-26 14:08:00,73.3,67.1,29.74,West,259,3.0,3.0,81,0.00,-RA,,0.73,267.0,WeatherDisplay:10.37,2013-06-26 19:08:00,
2013-06-26 14:13:00,72.9,66.7,29.74,SW,229,4.6,4.6,81,0.00,-RA,,0.73,227.0,WeatherDisplay:10.37,2013-06-26 19:13:00,
2013-06-26 14:18:00,73.4,68.6,29.74,SW,217,1.2,1.2,85,0.00,-RA,,0.73,309.0,WeatherDisplay:10.37,2013-06-26 19:18:00,
2013-06-26 14:23:00,75.5,68.2,29.74,SW,236,2.3,0.0,78,0.00,-RA,,0.73,960.0,WeatherDisplay:10.37,2013-06-26 19:23:00,
2013-06-26 14:28:00,76.0,67.9,29.73,WSW,244,1.2,0.0,76,0.00,-RA,,0.73,937.0,WeatherDisplay:10.37,2013-06-26 19:28:00,
2013-06-26 14:33:00,76.0,67.5,29.73,WSW,257,1.2,1.2,75,0.00,-RA,,0.73,1042.0,WeatherDisplay:10.37,2013-06-26 19:33:00,
2013-06-26 14:38:00,76.2,66.9,29.73,WNW,298,1.2,1.2,73,0.00,-RA,,0.73,304.0,WeatherDisplay:10.37,2013-06-26 19:38:00,
2013-06-26 14:43:00,76.1,67.2,29.73,West,267,2.3,2.3,74,0.00,-RA,,0.73,366.0,WeatherDisplay:10.37,2013-06-26 19:43:00,
2013-06-26 14:48:00,76.9,67.6,29.73,WNW,302,3.5,3.5,73,0.00,-RA,,0.73,972.0,WeatherDisplay:10.37,2013-06-26 19:48:00,
2013-06-26 14:53:00,77.7,67.5,29.73,West,264,6.9,6.9,71,0.00,-RA,,0.73,1004.0,WeatherDisplay:10.37,2013-06-26 19:53:00,
2013-06-26 14:58:00,78.3,68.1,29.73,SSW,212,3.5,3.5,71,0.00,-RA,,0.73,930.0,WeatherDisplay:10.37,2013-06-26 19:58:00,
2013-06-26 15:03:00,78.4,68.6,29.74,SW,228,0.0,0.0,72,0.00,-RA,,0.73,1013.0,WeatherDisplay:10.37,2013-06-26 20:03:00,
2013-06-26 15:08:00,78.7,67.7,29.73,WSW,252,3.5,3.5,69,0.00,-RA,,0.73,193.0,WeatherDisplay:10.37,2013-06-26 20:08:00,
2013-06-26 15:13:00,76.9,66.4,29.74,WSW,255,0.0,0.3,70,0.00,-RA,,0.73,271.0,WeatherDisplay:10.37,2013-06-26 20:13:00,
2013-06-26 15:18:00,77.4,68.1,29.74,SW,218,4.6,4.6,73,0.00,-RA,,0.73,919.0,WeatherDisplay:10.37,2013-06-26 20:18:00,
2013-06-26 15:23:00,78.3,68.5,29.74,WNW,298,4.6,4.6,72,0.00,-RA,,0.73,942.0,WeatherDisplay:10.37,2013-06-26 20:23:00,
2013-06-26 15:28:00,77.7,68.0,29.74,WNW,296,3.5,3.5,72,0.00,-RA,,0.73,297.0,WeatherDisplay:10.37,2013-06-26 20:28:00,
2013-06-26 15:33:00,78.2,68.4,29.74,West,271,2.3,2.3,72,0.00,-RA,,0.73,960.0,WeatherDisplay:10.37,2013-06-26 20:33:00,
2013-06-26 15:38:00,78.4,66.5,29.74,WNW,283,3.5,3.5,67,0.00,-RA,,0.73,341.0,WeatherDisplay:10.37,2013-06-26 20:38:00,
2013-06-26 15:43:00,78.0,66.6,29.74,WNW,299,0.0,0.0,68,0.00,-RA,,0.73,195.0,WeatherDisplay:10.37,2013-06-26 20:43:00,
2013-06-26 15:48:00,78.5,68.7,29.74,West,272,1.0,0.0,72,0.00,-RA,,0.73,889.0,WeatherDisplay:10.37,2013-06-26 20:48:00,
2013-06-26 15:53:00,80.0,68.5,29.74,WSW,241,2.3,2.3,68,0.00,-RA,,0.73,807.0,WeatherDisplay:10.37,2013-06-26 20:53:00,
2013-06-26 15:58:00,78.7,66.4,29.74,West,261,1.2,1.2,66,0.00,-RA,,0.73,213.0,WeatherDisplay:10.37,2013-06-26 20:58:00,
2013-06-26 16:03:00,79.2,69.4,29.74,SW,224,0.0,0.8,72,0.00,-RA,,0.73,854.0,WeatherDisplay:10.37,2013-06-26 21:03:00,
2013-06-26 16:08:00,80.3,68.3,29.74,WSW,252,3.5,0.0,67,0.00,-RA,,0.73,789.0,WeatherDisplay:10.37,2013-06-26 21:08:00,
2013-06-26 16:13:00,80.4,67.6,29.74,SW,233,5.8,5.8,65,0.00,-RA,,0.73,798.0,WeatherDisplay:10.37,2013-06-26 21:13:00,
2013-06-26 16:18:00,80.3,67.5,29.75,WSW,238,1.2,0.0,65,0.00,-RA,,0.73,905.0,WeatherDisplay:10.37,2013-06-26 21:18:00,
2013-06-26 16:23:00,80.4,67.1,29.75,SSW,209,2.3,2.3,64,0.00,-RA,,0.73,826.0,WeatherDisplay:10.37,2013-06-26 21:23:00,
2013-06-26 16:29:00,79.8,66.5,29.74,West,264,3.0,3.0,64,0.00,-RA,,0.73,798.0,WeatherDisplay:10.37,2013-06-26 21:29:00,
2013-06-26 16:34:00,79.5,67.1,29.74,West,277,0.0,0.0,66,0.00,-RA,,0.73,812.0,WeatherDisplay:10.37,2013-06-26 21:34:00,
2013-06-26 16:39:00,79.4,65.2,29.74,West,275,1.2,1.6,62,0.00,-RA,,0.73,536.0,WeatherDisplay:10.37,2013-06-26 21:39:00,
2013-06-26 16:44:00,78.7,65.9,29.74,WSW,255,3.5,3.5,65,0.00,-RA,,0.73,439.0,WeatherDisplay:10.37,2013-06-26 21:44:00,
2013-06-26 16:49:00,78.2,65.9,29.74,NW,310,0.0,0.0,66,0.00,-RA,,0.73,431.0,WeatherDisplay:10.37,2013-06-26 21:49:00,
2013-06-26 16:54:00,79.2,67.3,29.74,West,277,3.5,3.5,67,0.00,-RA,,0.73,773.0,WeatherDisplay:10.37,2013-06-26 21:54:00,
2013-06-26 16:59:00,80.5,66.7,29.74,NW,326,3.5,3.5,63,0.00,-RA,,0.73,765.0,WeatherDisplay:10.37,2013-06-26 21:59:00,
2013-06-26 17:04:00,80.7,66.9,29.74,NW,323,3.5,0.0,63,0.00,-RA,,0.73,671.0,WeatherDisplay:10.37,2013-06-26 22:04:00,
2013-06-26 17:09:00,80.2,66.0,29.74,WSW,249,3.5,3.5,62,0.00,-RA,,0.73,635.0,WeatherDisplay:10.37,2013-06-26 22:09:00,
2013-06-26 17:14:00,80.2,67.4,29.74,West,271,3.5,0.0,65,0.00,-RA,,0.73,645.0,WeatherDisplay:10.37,2013-06-26 22:14:00,
2013-06-26 17:19:00,80.2,66.9,29.73,NNE,27,2.3,2.3,64,0.00,-RA,,0.73,673.0,WeatherDisplay:10.37,2013-06-26 22:19:00,
2013-06-26 17:24:00,80.3,67.5,29.74,West,264,3.5,0.0,65,0.00,-RA,,0.73,322.0,WeatherDisplay:10.37,2013-06-26 22:24:00,
2013-06-26 17:29:00,79.2,65.5,29.74,WSW,252,2.3,0.0,63,0.00,-RA,,0.73,232.0,WeatherDisplay:10.37,2013-06-26 22:29:00,
2013-06-26 17:34:00,78.3,66.4,29.74,West,273,0.0,0.0,67,0.00,-RA,,0.73,274.0,WeatherDisplay:10.37,2013-06-26 22:34:00,
2013-06-26 17:39:00,79.0,66.2,29.74,WNW,298,1.2,1.7,65,0.00,-RA,,0.73,726.0,WeatherDisplay:10.37,2013-06-26 22:39:00,
2013-06-26 17:44:00,80.1,68.2,29.74,WNW,286,0.0,0.2,67,0.00,-RA,,0.73,564.0,WeatherDisplay:10.37,2013-06-26 22:44:00,
2013-06-26 17:49:00,80.0,66.3,29.74,North,355,1.2,0.0,63,0.00,-RA,,0.73,531.0,WeatherDisplay:10.37,2013-06-26 22:49:00,
2013-06-26 17:54:00,79.9,67.1,29.74,WSW,243,0.0,0.0,65,0.00,-RA,,0.73,53.0,WeatherDisplay:10.37,2013-06-26 22:54:00,
2013-06-26 17:59:00,79.4,65.7,29.74,West,275,1.2,0.0,63,0.00,-RA,,0.73,540.0,WeatherDisplay:10.37,2013-06-26 22:59:00,
2013-06-26 18:04:00,79.7,67.3,29.74,West,269,1.2,0.0,66,0.00,-RA,,0.73,482.0,WeatherDisplay:10.37,2013-06-26 23:04:00,
2013-06-26 18:09:00,79.8,65.6,29.74,NNW,340,0.0,0.0,62,0.00,-RA,,0.73,464.0,WeatherDisplay:10.37,2013-06-26 23:09:00,
2013-06-26 18:14:00,79.7,66.4,29.73,WNW,296,0.0,0.0,64,0.00,-RA,,0.73,441.0,WeatherDisplay:10.37,2013-06-26 23:14:00,
2013-06-26 18:19:00,79.8,67.0,29.74,North,355,0.0,0.0,65,0.00,-RA,,0.73,436.0,WeatherDisplay:10.37,2013-06-26 23:19:00,
2013-06-26 18:24:00,79.9,67.5,29.73,West,269,1.0,1.0,66,0.00,-RA,,0.73,47.0,WeatherDisplay:10.37,2013-06-26 23:24:00,
2013-06-26 18:29:00,79.3,66.1,29.74,West,267,1.0,0.0,64,0.00,-RA,,0.73,461.0,WeatherDisplay:10.37,2013-06-26 23:29:00,
2013-06-26 18:34:00,79.4,65.7,29.73,WSW,248,0.0,0.0,63,0.00,-RA,,0.73,287.0,WeatherDisplay:10.37,2013-06-26 23:34:00,
2013-06-26 18:39:00,79.7,67.3,29.74,WSW,249,0.0,0.0,66,0.00,-RA,,0.73,76.0,WeatherDisplay:10.37,2013-06-26 23:39:00,
2013-06-26 18:44:00,79.5,66.3,29.73,WSW,246,3.5,3.5,64,0.00,-RA,,0.73,390.0,WeatherDisplay:10.37,2013-06-26 23:44:00,
2013-06-26 18:49:00,79.6,65.9,29.73,WSW,240,1.2,1.2,63,0.00,-RA,,0.73,202.0,WeatherDisplay:10.37,2013-06-26 23:49:00,
2013-06-26 18:54:00,79.5,66.3,29.73,WSW,256,3.5,3.5,64,0.00,-RA,,0.73,142.0,WeatherDisplay:10.37,2013-06-26 23:54:00,
2013-06-26 18:59:00,79.3,66.1,29.73,WNW,303,0.0,0.0,64,0.00,-RA,,0.73,116.0,WeatherDisplay:10.37,2013-06-26 23:59:00,
2013-06-26 19:04:00,79.3,67.4,29.73,WNW,302,0.0,0.0,67,0.00,-RA,,0.73,67.0,WeatherDisplay:10.37,2013-06-27 00:04:00,
2013-06-26 19:09:00,79.2,65.5,29.73,WNW,286,3.5,3.5,63,0.00,-RA,,0.73,76.0,WeatherDisplay:10.37,2013-06-27 00:09:00,
2013-06-26 19:14:00,79.1,65.9,29.73,WNW,286,1.2,0.0,64,0.00,-RA,,0.73,141.0,WeatherDisplay:10.37,2013-06-27 00:14:00,
2013-06-26 19:19:00,79.1,68.1,29.73,WNW,286,0.0,0.0,69,0.00,-RA,,0.73,47.0,WeatherDisplay:10.37,2013-06-27 00:19:00,
2013-06-26 19:24:00,78.8,66.5,29.73,WNW,283,1.2,1.2,66,0.00,-RA,,0.73,47.0,WeatherDisplay:10.37,2013-06-27 00:24:00,
2013-06-26 19:29:00,78.7,66.8,29.73,WNW,284,0.0,0.0,67,0.00,-RA,,0.73,46.0,WeatherDisplay:10.37,2013-06-27 00:29:00,
2013-06-26 19:34:00,78.5,65.8,29.73,West,275,0.0,0.0,65,0.00,-RA,,0.73,49.0,WeatherDisplay:10.37,2013-06-27 00:34:00,
2013-06-26 19:39:00,78.3,66.4,29.73,West,275,0.0,0.0,67,0.00,-RA,,0.73,39.0,WeatherDisplay:10.37,2013-06-27 00:39:00,
2013-06-26 19:44:00,78.2,66.8,29.73,West,274,2.0,2.0,68,0.00,-RA,,0.73,39.0,WeatherDisplay:10.37,2013-06-27 00:44:00,
2013-06-26 19:49:00,78.2,66.3,29.73,West,273,0.0,0.0,67,0.00,-RA,,0.73,35.0,WeatherDisplay:10.37,2013-06-27 00:49:00,
2013-06-26 19:54:00,78.2,66.8,29.73,West,273,0.0,0.0,68,0.00,-RA,,0.73,33.0,WeatherDisplay:10.37,2013-06-27 00:54:00,
2013-06-26 19:59:00,78.2,66.3,29.73,West,265,0.0,0.0,67,0.00,-RA,,0.73,30.0,WeatherDisplay:10.37,2013-06-27 00:59:00,
2013-06-26 20:04:00,78.2,66.3,29.73,West,265,0.0,0.0,67,0.00,-RA,,0.73,28.0,WeatherDisplay:10.37,2013-06-27 01:04:00,
2013-06-26 20:09:00,78.1,66.7,29.73,West,265,0.0,0.0,68,0.00,-RA,,0.73,26.0,WeatherDisplay:10.37,2013-06-27 01:09:00,
2013-06-26 20:14:00,78.0,66.6,29.74,West,261,3.5,3.5,68,0.00,-RA,,0.73,40.0,WeatherDisplay:10.37,2013-06-27 01:14:00,
2013-06-26 20:19:00,77.8,66.4,29.74,West,260,1.2,1.2,68,0.00,-RA,,0.73,40.0,WeatherDisplay:10.37,2013-06-27 01:19:00,
2013-06-26 20:24:00,77.6,66.6,29.74,West,260,0.0,0.0,69,0.00,-RA,,0.73,26.0,WeatherDisplay:10.37,2013-06-27 01:24:00,
2013-06-26 20:29:00,77.5,66.9,29.74,West,260,0.0,0.0,70,0.00,-RA,,0.73,25.0,WeatherDisplay:10.37,2013-06-27 01:29:00,
2013-06-26 20:34:00,77.3,66.7,29.74,West,260,0.0,0.0,70,0.00,-RA,,0.73,19.0,WeatherDisplay:10.37,2013-06-27 01:34:00,
2013-06-26 20:39:00,77.1,67.0,29.74,West,259,1.2,1.2,71,0.00,-RA,,0.73,18.0,WeatherDisplay:10.37,2013-06-27 01:39:00,
2013-06-26 20:44:00,76.9,66.8,29.74,West,259,0.0,0.0,71,0.00,-RA,,0.73,26.0,WeatherDisplay:10.37,2013-06-27 01:44:00,
2013-06-26 20:49:00,76.7,66.6,29.74,West,259,0.0,0.0,71,0.00,-RA,,0.73,18.0,WeatherDisplay:10.37,2013-06-27 01:49:00,
2013-06-26 20:54:00,76.5,66.4,29.74,West,259,0.0,0.0,71,0.00,-RA,,0.73,14.0,WeatherDisplay:10.37,2013-06-27 01:54:00,
2013-06-26 20:59:00,76.2,66.1,29.74,West,259,0.0,0.0,71,0.00,-RA,,0.73,11.0,WeatherDisplay:10.37,2013-06-27 01:59:00,
2013-06-26 21:04:00,76.0,65.9,29.73,West,259,0.0,0.0,71,0.00,-RA,,0.73,7.0,WeatherDisplay:10.37,2013-06-27 02:04:00,
2013-06-26 21:09:00,75.8,65.7,29.74,West,259,0.0,0.0,71,0.00,-RA,,0.73,5.0,WeatherDisplay:10.37,2013-06-27 02:09:00,
2013-06-26 21:14:00,75.5,65.4,29.74,West,259,0.0,0.0,71,0.00,-RA,,0.73,5.0,WeatherDisplay:10.37,2013-06-27 02:14:00,
2013-06-26 21:19:00,75.1,65.5,29.74,West,259,0.0,0.0,72,0.00,-RA,,0.73,0.0,WeatherDisplay:10.37,2013-06-27 02:19:00,
2013-06-26 21:24:00,74.7,65.1,29.74,West,259,0.0,0.0,72,0.00,-RA,,0.73,0.0,WeatherDisplay:10.37,2013-06-27 02:24:00,
2013-06-26 21:29:00,74.3,65.9,29.74,West,259,0.0,0.0,75,0.00,-RA,,0.73,0.0,WeatherDisplay:10.37,2013-06-27 02:29:00,
2013-06-26 21:34:00,73.9,65.9,29.74,West,259,0.0,0.0,76,0.00,-RA,,0.73,0.0,WeatherDisplay:10.37,2013-06-27 02:34:00,
2013-06-26 21:39:00,73.4,65.4,29.74,West,259,0.0,0.0,76,0.00,-RA,,0.73,0.0,WeatherDisplay:10.37,2013-06-27 02:39:00,
2013-06-26 21:44:00,72.9,65.3,29.74,West,259,0.0,0.0,77,0.00,-RA,,0.73,0.0,WeatherDisplay:10.37,2013-06-27 02:44:00,
2013-06-26 21:49:00,72.4,65.2,29.74,West,259,0.0,0.0,78,0.00,-RA,,0.73,0.0,WeatherDisplay:10.37,2013-06-27 02:49:00,
2013-06-26 21:54:00,71.9,65.0,29.75,West,259,0.0,0.0,79,0.00,-RA,,0.73,0.0,WeatherDisplay:10.37,2013-06-27 02:54:00,
2013-06-26 21:59:00,71.3,64.8,29.75,West,259,0.0,0.0,80,0.00,-RA,,0.73,0.0,WeatherDisplay:10.37,2013-06-27 02:59:00,
2013-06-26 22:04:00,70.9,64.4,29.75,West,259,0.0,0.0,80,0.00,-RA,,0.73,0.0,WeatherDisplay:10.37,2013-06-27 03:04:00,
2013-06-26 22:09:00,70.4,64.3,29.75,West,259,1.2,1.2,81,0.00,-RA,,0.73,0.0,WeatherDisplay:10.37,2013-06-27 03:09:00,
2013-06-26 22:14:00,70.0,64.2,29.75,West,259,0.0,0.0,82,0.00,-RA,,0.73,0.0,WeatherDisplay:10.37,2013-06-27 03:14:00,
2013-06-26 22:19:00,69.6,63.9,29.75,West,259,0.0,0.0,82,0.00,-RA,,0.73,0.0,WeatherDisplay:10.37,2013-06-27 03:19:00,
2013-06-26 22:24:00,69.2,63.8,29.75,West,259,0.0,0.0,83,0.00,-RA,,0.73,0.0,WeatherDisplay:10.37,2013-06-27 03:24:00,
2013-06-26 22:29:00,68.8,63.4,29.75,West,259,0.0,0.0,83,0.00,-RA,,0.73,0.0,WeatherDisplay:10.37,2013-06-27 03:29:00,
2013-06-26 22:34:00,68.4,63.4,29.75,West,259,0.0,0.0,84,0.00,-RA,,0.73,0.0,WeatherDisplay:10.37,2013-06-27 03:34:00,
2013-06-26 22:39:00,68.1,63.1,29.75,West,259,0.0,0.0,84,0.00,-RA,,0.73,0.0,WeatherDisplay:10.37,2013-06-27 03:39:00,
2013-06-26 22:44:00,67.8,63.1,29.75,West,259,0.0,0.0,85,0.00,-RA,,0.73,0.0,WeatherDisplay:10.37,2013-06-27 03:44:00,
2013-06-26 22:49:00,67.5,63.2,29.75,West,259,0.0,0.0,86,0.00,-RA,,0.73,0.0,WeatherDisplay:10.37,2013-06-27 03:49:00,
2013-06-26 22:54:00,67.2,62.9,29.75,West,259,0.0,0.0,86,0.00,-RA,,0.73,0.0,WeatherDisplay:10.37,2013-06-27 03:54:00,
2013-06-26 22:59:00,67.0,63.0,29.75,West,259,0.0,0.0,87,0.00,-RA,,0.73,0.0,WeatherDisplay:10.37,2013-06-27 03:59:00,
2013-06-26 23:01:00,66.9,62.9,29.75,West,259,0.0,0.0,87,0.00,-RA,,0.73,0.0,WeatherDisplay:10.37,2013-06-27 04:01:00,
2013-06-26 23:02:00,66.9,62.9,29.75,West,259,0.0,0.0,87,0.00,-RA,,0.73,0.0,WeatherDisplay:10.37,2013-06-27 04:02:00,
2013-06-26 23:07:00,66.7,63.0,29.75,West,259,0.0,0.0,88,0.00,-RA,,0.73,0.0,WeatherDisplay:10.37,2013-06-27 04:07:00,
2013-06-26 23:12:00,66.5,62.8,29.75,West,259,0.0,0.0,88,0.00,-RA,,0.73,0.0,WeatherDisplay:10.37,2013-06-27 04:12:00,
2013-06-26 23:17:00,66.3,62.6,29.75,West,259,0.0,0.0,88,0.00,-RA,,0.73,0.0,WeatherDisplay:10.37,2013-06-27 04:17:00,
2013-06-26 23:22:00,66.1,62.8,29.75,West,259,0.0,0.0,89,0.00,-RA,,0.73,0.0,WeatherDisplay:10.37,2013-06-27 04:22:00,
2013-06-26 23:27:00,66.0,62.7,29.76,West,259,0.0,0.0,89,0.00,-RA,,0.73,0.0,WeatherDisplay:10.37,2013-06-27 04:27:00,
2013-06-26 23:32:00,65.8,62.5,29.76,West,259,0.0,0.0,89,0.00,-RA,,0.73,0.0,WeatherDisplay:10.37,2013-06-27 04:32:00,
2013-06-26 23:37:00,65.6,62.6,29.76,West,259,0.0,0.0,90,0.00,-RA,,0.73,0.0,WeatherDisplay:10.37,2013-06-27 04:37:00,
2013-06-26 23:42:00,65.5,62.5,29.76,West,259,0.0,0.0,90,0.00,-RA,,0.73,0.0,WeatherDisplay:10.37,2013-06-27 04:42:00,
2013-06-26 23:47:00,65.4,62.4,29.76,West,259,0.0,0.0,90,0.00,-RA,,0.73,0.0,WeatherDisplay:10.37,2013-06-27 04:47:00,
2013-06-26 23:52:00,65.3,62.3,29.76,West,259,0.0,0.0,90,0.00,-RA,,0.73,0.0,WeatherDisplay:10.37,2013-06-27 04:52:00,
2013-06-26 23:57:00,65.1,62.1,29.76,West,259,0.0,0.0,90,0.00,-RA,,0.73,0.0,WeatherDisplay:10.37,2013-06-27 04:57:00,